Time;durP1;ratioP1;P1;durP2;ratioP2;P2;SDS_P1;SDS_P2;PMS_P1;PMS_P2;Temp;Humidity;BMP_temperature;BMP_pressure;BME280_temperature;BME280_humidity;BME280_pressure;Samples;Min_cycle;Max_cycle;Signal;HPM_P1;HPM_P2
2023/08/11 00:00:25;;;;;;;11.73;9.10;;;17.80;99.90;;;;;;4994557;28;20477;-80
2023/08/11 00:02:52;;;;;;;11.73;8.73;;;17.80;99.90;;;;;;4994982;28;20497;-80
2023/08/11 00:05:20;;;;;;;10.23;9.07;;;17.80;99.90;;;;;;4994847;28;20781;-80
2023/08/11 00:07:50;;;;;;;11.57;10.17;;;17.70;99.90;;;;;;4994638;28;20804;-80
2023/08/11 00:10:23;;;;;;;11.27;9.87;;;17.70;99.90;;;;;;4994615;28;20493;-81
2023/08/11 00:12:51;;;;;;;11.17;9.40;;;17.70;99.90;;;;;;4993495;28;20477;-80
2023/08/11 00:15:18;;;;;;;14.00;9.70;;;17.70;99.90;;;;;;4995111;28;20473;-80
2023/08/11 00:17:47;;;;;;;10.90;9.80;;;17.70;99.90;;;;;;4984498;28;20480;-79
2023/08/11 00:20:14;;;;;;;10.53;9.27;;;17.70;99.90;;;;;;4994140;28;20990;-79
2023/08/11 00:22:44;;;;;;;11.90;9.80;;;17.70;99.90;;;;;;4994406;28;20474;-80
2023/08/11 00:25:11;;;;;;;9.37;8.33;;;17.70;99.90;;;;;;4984777;28;20547;-80
2023/08/11 00:27:45;;;;;;;9.30;7.80;;;17.70;99.90;;;;;;4984646;28;20859;-80
2023/08/11 00:30:14;;;;;;;9.57;8.10;;;17.70;99.90;;;;;;4993620;28;20556;-80
2023/08/11 00:32:42;;;;;;;12.33;8.40;;;17.70;99.90;;;;;;4994622;28;20469;-81
2023/08/11 00:35:09;;;;;;;14.43;9.67;;;17.70;99.90;;;;;;4993244;28;20520;-80
2023/08/11 00:37:37;;;;;;;10.03;9.00;;;17.70;99.90;;;;;;4994545;28;20497;-80
2023/08/11 00:40:08;;;;;;;11.87;9.70;;;17.70;99.90;;;;;;4993740;28;20940;-80
2023/08/11 00:42:35;;;;;;;10.50;9.40;;;17.70;99.90;;;;;;4994516;28;20473;-80
2023/08/11 00:45:05;;;;;;;9.53;8.50;;;17.70;99.90;;;;;;4994161;28;20478;-79
2023/08/11 00:47:34;;;;;;;11.40;10.30;;;17.60;99.90;;;;;;4994797;28;20549;-80
2023/08/11 00:50:02;;;;;;;12.80;10.43;;;17.60;99.90;;;;;;4993791;28;20462;-79
2023/08/11 00:52:29;;;;;;;13.00;9.67;;;17.60;99.90;;;;;;4994740;28;20474;-80
2023/08/11 00:54:59;;;;;;;10.30;9.17;;;17.60;99.90;;;;;;4994011;28;20488;-79
2023/08/11 00:57:26;;;;;;;11.73;10.47;;;17.60;99.90;;;;;;4995086;28;20477;-79
2023/08/11 00:59:54;;;;;;;13.53;9.70;;;17.60;99.90;;;;;;4993424;28;20823;-80
2023/08/11 01:02:22;;;;;;;13.93;9.30;;;17.60;99.90;;;;;;4994287;28;20481;-79
2023/08/11 01:04:51;;;;;;;10.83;9.73;;;17.50;99.90;;;;;;4993029;28;20474;-80
2023/08/11 01:07:23;;;;;;;13.70;10.63;;;17.50;99.90;;;;;;4994214;28;20470;-80
2023/08/11 01:09:58;;;;;;;13.00;9.50;;;17.50;99.90;;;;;;4993648;28;20481;-80
2023/08/11 01:12:30;;;;;;;11.73;9.97;;;17.50;99.90;;;;;;4993214;28;20474;-79
2023/08/11 01:15:07;;;;;;;16.20;10.37;;;17.40;99.90;;;;;;4993053;28;20557;-80
2023/08/11 01:17:37;;;;;;;12.47;10.60;;;17.40;99.90;;;;;;4993641;28;20472;-79
2023/08/11 01:20:10;;;;;;;10.57;9.37;;;17.40;99.90;;;;;;4993065;28;20796;-80
2023/08/11 01:22:39;;;;;;;10.33;9.37;;;17.40;99.90;;;;;;4994558;28;20526;-80
2023/08/11 01:25:10;;;;;;;13.40;10.43;;;17.40;99.90;;;;;;4996779;28;20461;-79
2023/08/11 01:27:43;;;;;;;11.10;9.90;;;17.40;99.90;;;;;;4988019;28;20473;-78
2023/08/11 01:30:12;;;;;;;13.20;9.60;;;17.40;99.90;;;;;;4997011;28;20454;-79
2023/08/11 01:32:39;;;;;;;11.70;9.37;;;17.30;99.90;;;;;;4996962;28;20482;-79
2023/08/11 01:35:10;;;;;;;9.83;8.70;;;17.40;99.90;;;;;;4996725;28;20521;-80
2023/08/11 01:37:38;;;;;;;11.20;9.40;;;17.40;99.90;;;;;;4996972;28;20484;-79
2023/08/11 01:40:10;;;;;;;11.90;9.20;;;17.40;99.90;;;;;;4987820;28;20477;-80
2023/08/11 01:42:39;;;;;;;10.30;9.10;;;17.40;99.90;;;;;;4987075;28;20543;-80
2023/08/11 01:45:10;;;;;;;9.83;8.43;;;17.40;99.90;;;;;;4996058;28;20509;-79
2023/08/11 01:47:40;;;;;;;10.70;9.60;;;17.30;99.90;;;;;;4997215;28;20477;-80
2023/08/11 01:50:09;;;;;;;11.80;9.40;;;17.40;99.90;;;;;;4976595;28;20484;-79
2023/08/11 01:52:37;;;;;;;11.40;9.30;;;17.40;99.90;;;;;;4996539;28;20484;-79
2023/08/11 01:55:05;;;;;;;9.70;8.17;;;17.40;99.90;;;;;;4995891;28;20474;-79
2023/08/11 01:57:47;;;;;;;10.97;8.40;;;17.40;99.90;;;;;;4996844;28;20508;-79
2023/08/11 02:00:16;;;;;;;12.37;10.17;;;17.40;99.90;;;;;;4996255;28;20493;-80
2023/08/11 02:02:44;;;;;;;11.27;8.73;;;17.40;99.90;;;;;;4996908;28;20477;-80
2023/08/11 02:05:12;;;;;;;14.13;9.57;;;17.40;99.90;;;;;;4996323;28;20540;-79
2023/08/11 02:07:39;;;;;;;10.27;9.27;;;17.40;99.90;;;;;;4996579;28;20544;-79
2023/08/11 02:10:09;;;;;;;11.43;9.37;;;17.40;99.90;;;;;;4995988;28;20469;-79
2023/08/11 02:12:37;;;;;;;11.40;9.70;;;17.30;99.90;;;;;;4997143;28;20891;-81
2023/08/11 02:15:06;;;;;;;11.77;8.47;;;17.30;99.90;;;;;;4996098;28;20478;-81
2023/08/11 02:17:33;;;;;;;14.00;9.80;;;17.30;99.90;;;;;;4996567;28;20457;-80
2023/08/11 02:20:09;;;;;;;10.97;9.80;;;17.30;99.90;;;;;;4996563;28;20497;-79
2023/08/11 02:22:36;;;;;;;11.37;8.80;;;17.30;99.90;;;;;;4996519;28;20469;-79
2023/08/11 02:25:04;;;;;;;10.03;8.93;;;17.30;99.90;;;;;;4995760;28;20457;-79
2023/08/11 02:27:31;;;;;;;13.17;9.63;;;17.30;99.90;;;;;;4996393;28;20484;-79
2023/08/11 02:29:58;;;;;;;12.30;9.83;;;17.30;99.90;;;;;;4996159;28;20498;-80
2023/08/11 02:32:29;;;;;;;11.23;9.40;;;17.30;99.90;;;;;;4996837;28;20496;-81
2023/08/11 02:35:00;;;;;;;10.40;9.03;;;17.30;99.90;;;;;;4995120;28;20474;-80
2023/08/11 02:37:27;;;;;;;10.53;9.43;;;17.30;99.90;;;;;;4995920;28;20547;-80
2023/08/11 02:39:55;;;;;;;10.90;9.80;;;17.30;99.90;;;;;;4998064;28;20476;-81
2023/08/11 02:42:25;;;;;;;9.10;8.30;;;17.30;99.90;;;;;;4997019;28;20869;-79
2023/08/11 02:44:52;;;;;;;11.30;10.10;;;17.40;99.90;;;;;;4995336;28;20580;-80
2023/08/11 02:47:19;;;;;;;14.00;10.93;;;17.40;99.90;;;;;;4996924;28;20532;-80
2023/08/11 02:49:47;;;;;;;10.60;9.60;;;17.40;99.90;;;;;;4995759;28;20501;-79
2023/08/11 02:52:14;;;;;;;12.40;11.03;;;17.40;99.90;;;;;;4996057;28;20520;-79
2023/08/11 02:54:42;;;;;;;9.80;8.77;;;17.40;99.90;;;;;;4995597;28;20466;-79
2023/08/11 02:57:09;;;;;;;9.80;8.90;;;17.40;99.90;;;;;;4995177;28;21059;-81
2023/08/11 02:59:37;;;;;;;11.13;10.03;;;17.40;99.90;;;;;;4995555;28;20466;-80
2023/08/11 03:02:07;;;;;;;11.53;8.83;;;17.50;99.90;;;;;;4995538;28;20477;-82
2023/08/11 03:04:37;;;;;;;10.73;9.67;;;17.50;99.90;;;;;;4984342;28;20941;-81
2023/08/11 03:07:06;;;;;;;11.13;8.67;;;17.50;99.90;;;;;;4995085;28;20986;-80
2023/08/11 03:09:33;;;;;;;9.53;8.03;;;17.50;99.90;;;;;;4995717;28;20487;-81
2023/08/11 03:12:00;;;;;;;11.93;9.10;;;17.50;99.90;;;;;;4995089;28;20845;-80
2023/08/11 03:14:27;;;;;;;11.23;9.73;;;17.50;99.90;;;;;;4995478;28;20533;-80
2023/08/11 03:16:57;;;;;;;9.80;8.10;;;17.50;99.90;;;;;;4995040;28;20532;-80
2023/08/11 03:19:24;;;;;;;10.10;8.33;;;17.50;99.90;;;;;;4985291;28;20477;-81
2023/08/11 03:21:51;;;;;;;10.10;8.63;;;17.50;99.90;;;;;;4984785;28;20880;-80
2023/08/11 03:24:20;;;;;;;10.43;8.53;;;17.50;99.90;;;;;;4994992;28;20488;-80
2023/08/11 03:26:47;;;;;;;8.90;7.80;;;17.50;99.90;;;;;;4995208;28;20489;-80
2023/08/11 03:29:14;;;;;;;11.10;8.70;;;17.60;99.90;;;;;;4995055;28;20789;-81
2023/08/11 03:31:41;;;;;;;8.97;8.03;;;17.60;99.90;;;;;;4995688;28;20470;-78
2023/08/11 03:34:08;;;;;;;8.70;7.90;;;17.60;99.90;;;;;;4995937;28;20466;-82
2023/08/11 03:36:35;;;;;;;10.47;8.40;;;17.60;99.90;;;;;;4995567;28;20477;-77
2023/08/11 03:39:04;;;;;;;8.40;7.60;;;17.60;99.90;;;;;;4987956;28;20478;-79
2023/08/11 03:41:32;;;;;;;8.40;7.20;;;17.70;99.90;;;;;;5000911;28;20458;-80
2023/08/11 03:44:07;;;;;;;9.03;7.80;;;17.70;99.90;;;;;;4989443;28;20505;-78
2023/08/11 03:46:34;;;;;;;15.40;8.77;;;17.60;99.90;;;;;;4996848;28;20811;-79
2023/08/11 03:49:01;;;;;;;13.37;8.80;;;17.60;99.90;;;;;;4994778;28;20478;-79
2023/08/11 03:51:28;;;;;;;10.07;8.93;;;17.60;99.90;;;;;;4994809;28;20481;-79
2023/08/11 03:53:58;;;;;;;9.33;8.27;;;17.70;99.90;;;;;;4994768;28;20528;-78
2023/08/11 03:56:25;;;;;;;8.77;7.87;;;17.70;99.90;;;;;;4994929;28;20469;-80
2023/08/11 03:58:54;;;;;;;14.33;8.90;;;17.70;99.90;;;;;;4994331;28;20470;-80
2023/08/11 04:01:21;;;;;;;9.97;8.20;;;17.70;99.90;;;;;;4995878;28;20964;-80
2023/08/11 04:03:48;;;;;;;9.97;8.63;;;17.80;99.90;;;;;;4983900;28;20524;-80
2023/08/11 04:06:15;;;;;;;10.23;9.00;;;17.80;99.90;;;;;;4994394;28;20552;-78
2023/08/11 04:08:42;;;;;;;8.20;7.27;;;17.70;99.90;;;;;;4995056;28;20476;-78
2023/08/11 04:11:11;;;;;;;8.60;7.80;;;17.80;99.90;;;;;;4993364;28;20462;-80
2023/08/11 04:13:38;;;;;;;9.70;8.10;;;17.80;99.90;;;;;;4994092;28;20644;-80
2023/08/11 04:16:06;;;;;;;10.13;7.80;;;17.80;99.90;;;;;;4994053;28;20540;-81
2023/08/11 04:18:33;;;;;;;9.63;8.30;;;17.80;99.90;;;;;;4994292;28;20501;-80
2023/08/11 04:21:02;;;;;;;8.90;8.00;;;17.80;99.90;;;;;;4993507;28;21000;-80
2023/08/11 04:23:30;;;;;;;10.20;9.00;;;17.80;99.90;;;;;;4994420;28;20469;-81
2023/08/11 04:25:57;;;;;;;10.47;8.27;;;17.90;99.90;;;;;;4997230;28;20536;-81
2023/08/11 04:28:23;;;;;;;10.97;9.97;;;17.90;99.90;;;;;;4994654;28;20513;-81
2023/08/11 04:30:50;;;;;;;10.00;9.00;;;17.90;99.90;;;;;;4993903;28;20466;-80
2023/08/11 04:33:19;;;;;;;10.40;8.47;;;17.90;99.90;;;;;;4994327;28;20963;-80
2023/08/11 04:35:46;;;;;;;9.50;8.50;;;17.90;99.90;;;;;;4994410;28;20509;-79
2023/08/11 04:38:13;;;;;;;11.33;8.77;;;18.00;99.90;;;;;;4994000;28;20462;-80
2023/08/11 04:40:40;;;;;;;11.07;9.00;;;18.00;99.90;;;;;;4994390;28;20470;-81
2023/08/11 04:43:08;;;;;;;9.33;7.90;;;18.00;99.90;;;;;;4993665;28;20604;-79
2023/08/11 04:45:35;;;;;;;9.00;8.20;;;18.00;99.90;;;;;;4993999;28;20474;-79
2023/08/11 04:48:02;;;;;;;9.50;8.57;;;18.00;99.90;;;;;;4997988;28;20513;-81
2023/08/11 04:50:32;;;;;;;9.30;7.70;;;18.00;99.90;;;;;;4990390;28;20480;-81
2023/08/11 04:52:59;;;;;;;8.73;7.47;;;18.00;99.90;;;;;;4993230;28;20474;-79
2023/08/11 04:55:30;;;;;;;10.73;8.47;;;18.10;99.90;;;;;;4994500;28;20480;-79
2023/08/11 04:57:57;;;;;;;10.40;9.30;;;18.10;99.90;;;;;;4996379;28;20479;-80
2023/08/11 05:00:25;;;;;;;8.70;7.80;;;18.10;99.90;;;;;;4999245;28;20493;-81
2023/08/11 05:02:52;;;;;;;8.67;7.77;;;18.10;99.90;;;;;;4998411;28;20478;-80
2023/08/11 05:05:20;;;;;;;8.00;7.20;;;18.10;99.90;;;;;;4998563;28;20533;-79
2023/08/11 05:07:51;;;;;;;7.40;6.70;;;18.10;99.90;;;;;;4998181;28;20541;-81
2023/08/11 05:10:21;;;;;;;8.80;7.30;;;18.10;99.90;;;;;;4998096;28;20465;-81
2023/08/11 05:12:49;;;;;;;9.23;8.10;;;18.10;99.90;;;;;;4987315;28;20540;-81
2023/08/11 05:15:16;;;;;;;7.17;6.23;;;18.10;99.90;;;;;;4997446;28;20493;-80
2023/08/11 05:17:43;;;;;;;7.60;6.73;;;18.20;99.90;;;;;;4997277;28;20474;-80
2023/08/11 05:20:11;;;;;;;6.40;5.83;;;18.20;99.90;;;;;;4996827;28;20474;-79
2023/08/11 05:22:41;;;;;;;7.90;6.27;;;18.20;99.90;;;;;;4997399;28;20685;-80
2023/08/11 05:25:10;;;;;;;6.77;5.90;;;18.20;99.90;;;;;;4996640;28;20501;-79
2023/08/11 05:27:37;;;;;;;7.43;6.73;;;18.20;99.90;;;;;;4997250;28;20465;-80
2023/08/11 05:30:05;;;;;;;6.70;6.10;;;18.30;99.90;;;;;;4997425;28;20494;-79
2023/08/11 05:32:31;;;;;;;5.23;4.83;;;18.30;99.90;;;;;;4997071;28;20493;-80
2023/08/11 05:34:59;;;;;;;5.70;5.10;;;18.30;99.90;;;;;;4996625;28;20955;-79
2023/08/11 05:37:28;;;;;;;6.63;6.00;;;18.40;99.90;;;;;;4996716;28;20836;-79
2023/08/11 05:39:55;;;;;;;8.20;5.83;;;18.40;99.90;;;;;;4997083;28;20478;-80
2023/08/11 05:42:24;;;;;;;6.40;5.53;;;18.50;99.90;;;;;;4996400;28;20550;-81
2023/08/11 05:44:50;;;;;;;5.53;5.03;;;18.60;99.90;;;;;;4997054;28;20478;-79
2023/08/11 05:47:17;;;;;;;5.20;4.80;;;18.70;99.90;;;;;;4996512;28;21056;-80
2023/08/11 05:49:44;;;;;;;4.50;4.10;;;18.70;99.90;;;;;;4996838;28;20466;-81
2023/08/11 05:52:11;;;;;;;8.97;8.03;;;18.80;99.90;;;;;;4996495;28;20477;-81
2023/08/11 05:54:38;;;;;;;6.70;6.00;;;18.80;99.90;;;;;;4996442;28;20501;-82
2023/08/11 05:57:06;;;;;;;6.60;5.90;;;18.90;99.90;;;;;;4996257;28;20561;-80
2023/08/11 05:59:34;;;;;;;8.37;5.53;;;19.00;99.90;;;;;;4996281;28;20528;-81
2023/08/11 06:02:04;;;;;;;6.07;5.57;;;19.10;99.90;;;;;;4996873;28;20470;-80
2023/08/11 06:04:31;;;;;;;4.90;4.50;;;19.20;99.90;;;;;;4996442;28;20557;-79
2023/08/11 06:06:58;;;;;;;6.10;4.90;;;19.20;99.90;;;;;;4996292;28;20871;-79
2023/08/11 06:09:25;;;;;;;5.67;5.17;;;19.30;99.90;;;;;;4994900;28;20557;-79
2023/08/11 06:11:52;;;;;;;4.50;4.20;;;19.30;99.90;;;;;;4996857;28;20972;-79
2023/08/11 06:14:19;;;;;;;5.27;4.80;;;19.40;99.90;;;;;;4996007;28;20501;-79
2023/08/11 06:16:47;;;;;;;4.90;4.40;;;19.50;99.90;;;;;;4996259;28;20501;-79
2023/08/11 06:19:16;;;;;;;5.90;4.60;;;19.50;99.90;;;;;;4995778;28;20504;-80
2023/08/11 06:21:45;;;;;;;6.07;5.47;;;19.60;99.90;;;;;;4996350;28;20472;-79
2023/08/11 06:24:12;;;;;;;5.40;4.90;;;19.60;99.90;;;;;;4995771;28;20481;-80
2023/08/11 06:26:39;;;;;;;4.20;3.70;;;19.60;99.90;;;;;;4996238;28;20532;-79
2023/08/11 06:29:06;;;;;;;7.17;4.80;;;19.70;99.90;;;;;;4996590;28;20496;-79
2023/08/11 06:31:33;;;;;;;5.87;4.40;;;19.70;99.90;;;;;;4986764;28;20485;-79
2023/08/11 06:34:01;;;;;;;3.67;3.27;;;19.80;99.90;;;;;;4994960;28;20470;-80
2023/08/11 06:36:30;;;;;;;5.43;3.90;;;19.80;99.90;;;;;;4994904;28;20564;-80
2023/08/11 06:38:57;;;;;;;6.63;4.77;;;19.90;99.90;;;;;;4995880;28;20481;-80
2023/08/11 06:41:24;;;;;;;5.80;3.57;;;19.90;99.90;;;;;;4994977;28;20534;-81
2023/08/11 06:43:53;;;;;;;4.60;3.97;;;20.00;99.90;;;;;;4995980;28;20521;-81
2023/08/11 06:46:23;;;;;;;7.47;4.20;;;20.00;99.90;;;;;;4995438;28;21017;-81
2023/08/11 06:48:53;;;;;;;4.83;3.83;;;20.10;99.90;;;;;;4995699;28;20484;-81
2023/08/11 06:51:23;;;;;;;5.30;4.53;;;20.20;99.90;;;;;;4994818;28;21059;-80
2023/08/11 06:53:51;;;;;;;5.60;3.70;;;20.20;99.90;;;;;;4995890;28;20489;-80
2023/08/11 06:56:20;;;;;;;4.70;3.53;;;20.20;99.90;;;;;;4995578;28;20469;-80
2023/08/11 06:58:47;;;;;;;5.63;4.20;;;20.20;99.90;;;;;;4995718;28;20510;-79
2023/08/11 07:01:18;;;;;;;4.40;3.23;;;20.20;99.90;;;;;;4995506;28;20549;-79
2023/08/11 07:03:53;;;;;;;4.23;3.73;;;20.20;99.90;;;;;;4995693;28;20844;-80
2023/08/11 07:06:22;;;;;;;5.03;3.67;;;20.20;99.90;;;;;;4994666;28;20477;-80
2023/08/11 07:08:49;;;;;;;5.17;3.90;;;20.30;99.90;;;;;;4995399;28;20462;-79
2023/08/11 07:11:16;;;;;;;7.30;3.63;;;20.30;99.90;;;;;;4994783;28;20474;-79
2023/08/11 07:13:45;;;;;;;3.40;3.10;;;20.30;99.90;;;;;;4994863;28;20560;-78
2023/08/11 07:16:11;;;;;;;3.60;2.90;;;20.30;99.90;;;;;;4994960;28;20509;-79
2023/08/11 07:18:38;;;;;;;3.73;3.40;;;20.30;99.90;;;;;;4994282;28;20553;-79
2023/08/11 07:21:05;;;;;;;6.17;3.70;;;20.40;99.90;;;;;;4994637;28;20474;-80
2023/08/11 07:23:34;;;;;;;4.33;3.70;;;20.40;99.90;;;;;;4994710;28;20883;-80
2023/08/11 07:26:01;;;;;;;4.03;3.10;;;20.40;99.90;;;;;;4994952;28;20474;-81
2023/08/11 07:28:27;;;;;;;6.90;3.40;;;20.50;99.90;;;;;;4994587;28;21042;-80
2023/08/11 07:30:54;;;;;;;3.33;3.03;;;20.60;99.90;;;;;;4995113;28;20542;-80
2023/08/11 07:33:21;;;;;;;5.13;2.80;;;20.60;99.90;;;;;;4995248;28;20521;-79
2023/08/11 07:35:48;;;;;;;5.70;3.77;;;20.70;99.90;;;;;;4991149;28;20532;-79
2023/08/11 07:38:15;;;;;;;5.97;2.60;;;20.80;99.90;;;;;;4994116;28;20955;-80
2023/08/11 07:40:43;;;;;;;4.13;2.87;;;20.90;99.90;;;;;;4993227;28;20490;-80
2023/08/11 07:43:10;;;;;;;5.77;3.10;;;21.00;99.90;;;;;;4994658;28;20972;-81
2023/08/11 07:45:37;;;;;;;6.57;3.03;;;21.10;99.90;;;;;;4994129;28;20477;-80
2023/08/11 07:48:05;;;;;;;4.70;2.90;;;21.20;99.90;;;;;;4994929;28;20516;-80
2023/08/11 07:50:32;;;;;;;5.83;2.97;;;21.30;99.90;;;;;;4993884;28;20560;-81
2023/08/11 07:52:59;;;;;;;3.67;3.20;;;21.30;99.90;;;;;;4994814;28;20477;-80
2023/08/11 07:55:26;;;;;;;3.67;3.13;;;21.40;99.90;;;;;;4993842;28;20477;-81
2023/08/11 07:57:55;;;;;;;3.90;2.43;;;21.50;99.90;;;;;;4994473;28;20454;-81
2023/08/11 08:00:25;;;;;;;6.60;3.00;;;21.60;99.90;;;;;;4994587;28;20832;-80
2023/08/11 08:02:52;;;;;;;4.63;2.60;;;21.70;99.90;;;;;;4994114;28;20545;-80
2023/08/11 08:05:19;;;;;;;3.90;2.80;;;21.70;99.90;;;;;;4994118;28;20625;-81
2023/08/11 08:07:46;;;;;;;4.00;2.50;;;21.80;99.90;;;;;;4993827;28;20470;-78
2023/08/11 08:10:14;;;;;;;6.10;2.53;;;21.90;99.90;;;;;;4994362;28;20469;-78
2023/08/11 08:12:46;;;;;;;4.53;2.73;;;22.00;99.90;;;;;;4993515;28;20540;-79
2023/08/11 08:15:17;;;;;;;3.67;2.90;;;22.00;99.90;;;;;;4994398;28;20540;-81
2023/08/11 08:17:46;;;;;;;8.50;3.03;;;22.10;99.90;;;;;;4997502;28;20554;-79
2023/08/11 08:20:19;;;;;;;5.47;3.00;;;22.20;99.90;;;;;;4996168;28;20565;-79
2023/08/11 08:22:46;;;;;;;4.83;2.83;;;22.20;99.90;;;;;;4993370;28;20799;-78
2023/08/11 08:25:14;;;;;;;3.73;2.80;;;22.30;99.90;;;;;;4994295;28;20532;-80
2023/08/11 08:27:42;;;;;;;3.67;2.73;;;22.30;99.90;;;;;;4996219;28;20967;-78
2023/08/11 08:30:13;;;;;;;4.23;2.90;;;22.40;99.90;;;;;;4995633;28;20477;-78
2023/08/11 08:32:42;;;;;;;3.80;2.60;;;22.40;99.90;;;;;;4993089;28;20466;-78
2023/08/11 08:35:10;;;;;;;2.57;2.37;;;22.40;99.90;;;;;;4993538;28;20557;-79
2023/08/11 08:37:38;;;;;;;5.03;3.00;;;22.50;99.90;;;;;;4993372;28;20549;-79
2023/08/11 08:40:08;;;;;;;3.57;2.17;;;22.60;99.90;;;;;;4993786;28;20477;-80
2023/08/11 08:42:35;;;;;;;3.67;2.53;;;22.60;99.90;;;;;;4993662;28;20513;-80
2023/08/11 08:45:03;;;;;;;3.73;3.43;;;22.60;99.90;;;;;;4993660;28;20873;-80
2023/08/11 08:47:32;;;;;;;4.63;3.00;;;22.70;99.90;;;;;;4993562;28;20532;-80
2023/08/11 08:50:02;;;;;;;3.23;2.83;;;22.70;99.90;;;;;;4993273;28;20504;-80
2023/08/11 08:52:29;;;;;;;4.27;2.50;;;22.80;99.90;;;;;;4985603;28;20866;-80
2023/08/11 08:55:00;;;;;;;5.43;3.20;;;22.80;99.90;;;;;;4993123;28;20624;-79
2023/08/11 08:57:28;;;;;;;4.80;4.10;;;22.80;99.90;;;;;;4993773;28;20466;-80
2023/08/11 08:59:57;;;;;;;6.00;3.60;;;22.90;99.90;;;;;;4993804;28;20466;-80
2023/08/11 09:02:27;;;;;;;3.37;3.07;;;22.90;99.90;;;;;;4993726;28;20533;-79
2023/08/11 09:04:54;;;;;;;3.13;2.83;;;23.00;99.90;;;;;;4984699;28;20482;-80
2023/08/11 09:07:22;;;;;;;8.30;2.63;;;23.00;99.90;;;;;;4993987;28;20559;-79
2023/08/11 09:09:50;;;;;;;2.30;2.00;;;23.00;99.90;;;;;;4993795;28;20815;-79
2023/08/11 09:12:17;;;;;;;2.90;2.67;;;23.10;99.90;;;;;;4993987;28;20464;-79
2023/08/11 09:14:44;;;;;;;3.93;3.60;;;23.10;99.90;;;;;;4993465;28;20560;-80
2023/08/11 09:17:12;;;;;;;5.23;4.73;;;23.10;99.90;;;;;;4992227;28;20508;-80
2023/08/11 09:19:39;;;;;;;6.43;5.93;;;23.10;99.90;;;;;;4994532;28;21031;-78
2023/08/11 09:22:10;;;;;;;6.63;6.10;;;23.20;99.90;;;;;;4994540;28;21374;-79
2023/08/11 09:24:38;;;;;;;7.30;5.60;;;23.20;99.90;;;;;;4996361;28;20485;-79
2023/08/11 09:27:06;;;;;;;4.97;4.40;;;23.20;99.90;;;;;;4994418;28;20764;-80
2023/08/11 09:29:38;;;;;;;3.57;3.27;;;23.20;99.90;;;;;;4995411;28;20500;-80
2023/08/11 09:32:05;;;;;;;7.10;5.20;;;23.30;99.90;;;;;;4994470;28;20458;-80
2023/08/11 09:34:33;;;;;;;6.23;5.27;;;23.30;99.90;;;;;;4995147;28;20474;-80
2023/08/11 09:37:01;;;;;;;7.17;6.57;;;23.30;99.90;;;;;;4993958;28;20512;-80
2023/08/11 09:39:29;;;;;;;5.17;4.70;;;23.40;99.90;;;;;;4995863;28;20504;-81
2023/08/11 09:41:58;;;;;;;6.30;5.70;;;23.40;99.90;;;;;;4995805;28;20553;-81
2023/08/11 09:44:25;;;;;;;6.50;5.90;;;23.40;99.90;;;;;;4996846;28;20804;-80
2023/08/11 09:46:52;;;;;;;5.70;5.13;;;23.40;99.90;;;;;;4997554;28;20465;-80
2023/08/11 09:49:22;;;;;;;6.17;5.57;;;23.40;99.90;;;;;;4998347;28;20560;-80
2023/08/11 09:51:50;;;;;;;5.67;4.83;;;23.40;99.90;;;;;;4998219;28;20481;-81
2023/08/11 09:54:19;;;;;;;6.37;5.87;;;23.50;99.90;;;;;;4998769;28;20477;-80
2023/08/11 09:56:46;;;;;;;7.17;6.57;;;23.40;99.90;;;;;;4997879;28;20477;-80
2023/08/11 09:59:19;;;;;;;6.17;5.60;;;23.40;99.90;;;;;;4997822;28;20803;-80
2023/08/11 10:01:48;;;;;;;7.40;6.80;;;23.50;99.90;;;;;;4997261;28;20846;-80
2023/08/11 10:04:24;;;;;;;5.80;5.30;;;23.50;99.90;;;;;;4997766;28;20811;-79
2023/08/11 10:06:54;;;;;;;6.63;6.03;;;23.50;99.90;;;;;;4996824;28;20532;-81
2023/08/11 10:09:24;;;;;;;6.33;5.73;;;23.50;99.90;;;;;;4997713;28;20465;-80
2023/08/11 10:11:53;;;;;;;5.53;5.03;;;23.50;99.90;;;;;;4996349;28;20811;-79
2023/08/11 10:14:23;;;;;;;6.03;5.53;;;23.50;99.90;;;;;;4997227;28;20466;-80
2023/08/11 10:16:52;;;;;;;3.10;2.50;;;23.50;99.90;;;;;;4997349;28;20501;-81
2023/08/11 10:19:24;;;;;;;4.30;3.90;;;23.50;99.90;;;;;;4997115;28;20488;-80
2023/08/11 10:21:56;;;;;;;5.13;4.73;;;23.60;99.90;;;;;;4996610;28;20473;-80
2023/08/11 10:24:27;;;;;;;5.70;5.10;;;23.60;99.90;;;;;;4996486;28;20476;-81
2023/08/11 10:26:57;;;;;;;4.87;4.47;;;23.60;99.90;;;;;;4995163;28;20532;-80
2023/08/11 10:29:32;;;;;;;5.30;4.80;;;23.70;99.90;;;;;;4995626;28;20470;-81
2023/08/11 10:32:03;;;;;;;5.10;4.60;;;23.70;99.90;;;;;;4995553;28;20480;-81
2023/08/11 10:34:34;;;;;;;3.50;3.20;;;23.80;99.90;;;;;;4995807;28;20473;-81
2023/08/11 10:37:08;;;;;;;4.83;4.20;;;23.70;99.90;;;;;;4995366;28;20546;-80
2023/08/11 10:39:45;;;;;;;5.37;4.20;;;23.70;99.90;;;;;;4995814;28;20501;-80
2023/08/11 10:42:15;;;;;;;5.23;4.73;;;23.80;99.90;;;;;;4996007;28;20918;-81
2023/08/11 10:44:45;;;;;;;4.83;4.47;;;23.70;99.90;;;;;;4995971;28;20975;-80
2023/08/11 10:47:15;;;;;;;3.83;3.53;;;23.80;99.90;;;;;;4995029;28;20462;-80
2023/08/11 10:49:43;;;;;;;3.10;2.90;;;23.80;99.90;;;;;;4996248;28;20510;-79
2023/08/11 10:52:12;;;;;;;3.77;3.47;;;23.80;99.90;;;;;;4995622;28;20509;-80
2023/08/11 10:54:39;;;;;;;5.00;4.30;;;23.80;99.90;;;;;;4996160;28;20507;-80
2023/08/11 10:57:06;;;;;;;4.37;3.97;;;23.70;99.90;;;;;;4994782;28;20474;-83
2023/08/11 10:59:34;;;;;;;4.60;4.20;;;23.70;99.90;;;;;;4996528;28;20557;-80
2023/08/11 11:02:02;;;;;;;5.27;3.13;;;23.70;99.90;;;;;;4997235;28;20528;-81
2023/08/11 11:04:31;;;;;;;4.23;3.83;;;23.70;99.90;;;;;;4996563;28;20532;-82
2023/08/11 11:06:59;;;;;;;3.73;3.43;;;23.60;99.90;;;;;;4994776;28;20500;-81
2023/08/11 11:09:28;;;;;;;4.10;3.20;;;23.60;99.90;;;;;;4995951;28;20809;-80
2023/08/11 11:11:55;;;;;;;6.47;3.80;;;23.60;99.90;;;;;;4995158;28;20477;-80
2023/08/11 11:14:24;;;;;;;4.70;4.13;;;23.60;99.90;;;;;;4996502;28;20552;-81
2023/08/11 11:16:54;;;;;;;4.37;3.97;;;23.50;99.90;;;;;;4987684;28;20838;-82
2023/08/11 11:19:24;;;;;;;3.80;3.50;;;23.60;99.90;;;;;;4998348;28;20593;-81
2023/08/11 11:21:52;;;;;;;4.10;3.80;;;23.60;99.90;;;;;;5003111;28;20541;-79
2023/08/11 11:24:19;;;;;;;4.60;4.20;;;23.60;99.90;;;;;;4998923;28;20841;-80
2023/08/11 11:26:46;;;;;;;4.87;4.20;;;23.60;99.90;;;;;;4996287;28;20477;-80
2023/08/11 11:29:13;;;;;;;4.00;3.70;;;23.60;99.90;;;;;;4985187;28;20547;-80
2023/08/11 11:31:41;;;;;;;3.40;3.10;;;23.60;99.90;;;;;;4995118;28;20497;-79
2023/08/11 11:34:08;;;;;;;3.80;3.50;;;23.60;99.90;;;;;;4994591;28;20474;-80
2023/08/11 11:36:37;;;;;;;3.27;2.97;;;23.50;99.90;;;;;;4995301;28;20498;-80
2023/08/11 11:39:07;;;;;;;3.50;3.20;;;23.50;99.90;;;;;;4994202;28;20493;-79
2023/08/11 11:41:34;;;;;;;2.80;1.80;;;23.50;99.90;;;;;;4995321;28;20462;-79
2023/08/11 11:44:01;;;;;;;3.20;2.80;;;23.60;99.90;;;;;;5001441;28;20470;-78
2023/08/11 11:46:32;;;;;;;3.67;3.47;;;23.50;99.90;;;;;;4996368;28;20500;-79
2023/08/11 11:49:03;;;;;;;4.40;3.40;;;23.50;99.90;;;;;;4994889;28;20553;-79
2023/08/11 11:51:31;;;;;;;4.17;3.73;;;23.60;99.90;;;;;;4994475;28;20466;-80
2023/08/11 11:53:59;;;;;;;3.70;3.40;;;23.60;99.90;;;;;;4994082;28;20561;-80
2023/08/11 11:56:29;;;;;;;3.67;3.37;;;23.60;99.90;;;;;;4984298;28;20476;-79
2023/08/11 11:58:56;;;;;;;3.53;3.23;;;23.60;99.90;;;;;;4994075;28;20962;-80
2023/08/11 12:01:26;;;;;;;3.60;3.30;;;23.50;99.90;;;;;;4993889;28;20474;-80
2023/08/11 12:03:54;;;;;;;2.20;2.00;;;23.50;99.90;;;;;;4994150;28;20485;-81
2023/08/11 12:06:22;;;;;;;3.93;3.63;;;23.50;99.90;;;;;;5008243;28;20469;-82
2023/08/11 12:08:53;;;;;;;2.47;2.27;;;23.50;99.90;;;;;;5012279;28;20465;-81
2023/08/11 12:11:25;;;;;;;2.20;2.10;;;23.60;99.90;;;;;;5012016;28;20824;-79
2023/08/11 12:13:54;;;;;;;3.20;2.90;;;23.60;99.90;;;;;;5012477;28;20993;-79
2023/08/11 12:16:21;;;;;;;4.30;3.23;;;23.50;99.90;;;;;;5012487;28;20477;-80
2023/08/11 12:18:49;;;;;;;3.80;3.50;;;23.50;99.90;;;;;;5012928;28;20483;-80
2023/08/11 12:21:18;;;;;;;3.03;2.83;;;23.60;99.90;;;;;;5011642;28;20511;-80
2023/08/11 12:23:45;;;;;;;2.77;2.50;;;23.50;99.90;;;;;;5012995;28;20453;-80
2023/08/11 12:26:12;;;;;;;3.77;2.70;;;23.50;99.90;;;;;;5014620;28;20478;-80
2023/08/11 12:28:41;;;;;;;2.93;2.63;;;23.50;99.90;;;;;;5013466;28;20573;-80
2023/08/11 12:31:08;;;;;;;2.77;2.57;;;23.50;99.90;;;;;;5014468;28;20522;-81
2023/08/11 12:33:38;;;;;;;2.90;2.13;;;23.50;99.90;;;;;;5013003;28;20808;-80
2023/08/11 12:36:05;;;;;;;2.90;2.70;;;23.50;99.90;;;;;;5026898;28;20471;-78
2023/08/11 12:38:33;;;;;;;2.80;2.53;;;23.60;99.90;;;;;;5033094;28;20468;-80
2023/08/11 12:41:02;;;;;;;2.43;2.30;;;23.60;99.90;;;;;;5033240;28;20502;-78
2023/08/11 12:43:30;;;;;;;3.30;3.00;;;23.60;99.90;;;;;;5032703;28;20503;-80
2023/08/11 12:45:58;;;;;;;2.70;2.50;;;23.60;99.90;;;;;;5033720;28;20841;-78
2023/08/11 12:48:25;;;;;;;2.90;2.20;;;23.60;99.90;;;;;;5033432;28;20775;-78